sensor_id;sensor_type;location;lat;lon;timestamp;P1;durP1;ratioP1;P2;durP2;ratioP2
1682;SDS011;13252;53.596;10.060;2022-07-06T00:01:00;6.50;;;1.80;;
1682;SDS011;13252;53.596;10.060;2022-07-06T00:03:29;9.70;;;1.77;;
1682;SDS011;13252;53.596;10.060;2022-07-06T00:05:57;11.07;;;1.67;;
1682;SDS011;13252;53.596;10.060;2022-07-06T00:08:24;8.83;;;1.90;;
1682;SDS011;13252;53.596;10.060;2022-07-06T00:10:52;6.20;;;1.70;;
1682;SDS011;13252;53.596;10.060;2022-07-06T00:13:19;11.50;;;1.60;;
1682;SDS011;13252;53.596;10.060;2022-07-06T00:15:47;3.97;;;1.63;;
1682;SDS011;13252;53.596;10.060;2022-07-06T00:18:15;4.43;;;1.40;;
1682;SDS011;13252;53.596;10.060;2022-07-06T00:20:44;6.93;;;1.50;;
1682;SDS011;13252;53.596;10.060;2022-07-06T00:23:11;7.57;;;1.57;;
1682;SDS011;13252;53.596;10.060;2022-07-06T00:25:39;4.90;;;1.60;;
1682;SDS011;13252;53.596;10.060;2022-07-06T00:28:06;5.10;;;1.63;;
1682;SDS011;13252;53.596;10.060;2022-07-06T00:30:34;5.90;;;1.80;;
1682;SDS011;13252;53.596;10.060;2022-07-06T00:33:02;7.30;;;1.90;;
1682;SDS011;13252;53.596;10.060;2022-07-06T00:35:31;9.67;;;2.03;;
1682;SDS011;13252;53.596;10.060;2022-07-06T00:38:00;4.87;;;2.07;;
1682;SDS011;13252;53.596;10.060;2022-07-06T00:40:28;5.77;;;1.90;;
1682;SDS011;13252;53.596;10.060;2022-07-06T00:42:56;6.37;;;2.50;;
1682;SDS011;13252;53.596;10.060;2022-07-06T00:45:24;13.00;;;1.60;;
1682;SDS011;13252;53.596;10.060;2022-07-06T00:47:52;5.87;;;1.63;;
1682;SDS011;13252;53.596;10.060;2022-07-06T00:50:20;8.23;;;1.97;;
1682;SDS011;13252;53.596;10.060;2022-07-06T00:52:48;7.07;;;1.57;;
1682;SDS011;13252;53.596;10.060;2022-07-06T00:55:19;5.53;;;1.67;;
1682;SDS011;13252;53.596;10.060;2022-07-06T00:57:47;7.13;;;1.80;;
1682;SDS011;13252;53.596;10.060;2022-07-06T01:00:15;7.70;;;2.13;;
1682;SDS011;13252;53.596;10.060;2022-07-06T01:02:45;3.97;;;1.23;;
1682;SDS011;13252;53.596;10.060;2022-07-06T01:05:14;4.83;;;1.60;;
1682;SDS011;13252;53.596;10.060;2022-07-06T01:07:43;3.33;;;1.20;;
1682;SDS011;13252;53.596;10.060;2022-07-06T01:10:12;4.30;;;1.30;;
1682;SDS011;13252;53.596;10.060;2022-07-06T01:12:42;4.93;;;1.20;;
1682;SDS011;13252;53.596;10.060;2022-07-06T01:15:12;9.13;;;1.70;;
1682;SDS011;13252;53.596;10.060;2022-07-06T01:17:41;5.67;;;1.83;;
1682;SDS011;13252;53.596;10.060;2022-07-06T01:20:12;5.80;;;1.17;;
1682;SDS011;13252;53.596;10.060;2022-07-06T01:22:40;6.43;;;2.00;;
1682;SDS011;13252;53.596;10.060;2022-07-06T01:25:08;4.50;;;1.30;;
1682;SDS011;13252;53.596;10.060;2022-07-06T01:27:37;5.30;;;1.43;;
1682;SDS011;13252;53.596;10.060;2022-07-06T01:30:05;8.43;;;1.60;;
1682;SDS011;13252;53.596;10.060;2022-07-06T01:32:33;10.60;;;1.60;;
1682;SDS011;13252;53.596;10.060;2022-07-06T01:35:01;9.00;;;2.23;;
1682;SDS011;13252;53.596;10.060;2022-07-06T01:37:30;7.03;;;1.50;;
1682;SDS011;13252;53.596;10.060;2022-07-06T01:39:58;7.73;;;1.23;;
1682;SDS011;13252;53.596;10.060;2022-07-06T01:42:27;8.47;;;1.93;;
1682;SDS011;13252;53.596;10.060;2022-07-06T01:44:54;5.87;;;1.70;;
1682;SDS011;13252;53.596;10.060;2022-07-06T01:47:24;10.60;;;1.53;;
1682;SDS011;13252;53.596;10.060;2022-07-06T01:49:51;9.70;;;3.47;;
1682;SDS011;13252;53.596;10.060;2022-07-06T01:52:21;11.13;;;1.73;;
1682;SDS011;13252;53.596;10.060;2022-07-06T01:54:50;6.20;;;1.47;;
1682;SDS011;13252;53.596;10.060;2022-07-06T01:57:18;10.53;;;1.80;;
1682;SDS011;13252;53.596;10.060;2022-07-06T01:59:47;4.77;;;1.77;;
1682;SDS011;13252;53.596;10.060;2022-07-06T02:02:16;6.70;;;1.77;;
1682;SDS011;13252;53.596;10.060;2022-07-06T02:04:44;5.97;;;1.43;;
1682;SDS011;13252;53.596;10.060;2022-07-06T02:07:11;9.20;;;2.90;;
1682;SDS011;13252;53.596;10.060;2022-07-06T02:09:39;4.33;;;1.40;;
1682;SDS011;13252;53.596;10.060;2022-07-06T02:12:08;9.03;;;1.70;;
1682;SDS011;13252;53.596;10.060;2022-07-06T02:14:36;6.63;;;2.00;;
1682;SDS011;13252;53.596;10.060;2022-07-06T02:17:03;4.03;;;1.40;;
1682;SDS011;13252;53.596;10.060;2022-07-06T02:19:33;6.37;;;1.67;;
1682;SDS011;13252;53.596;10.060;2022-07-06T02:22:01;10.27;;;1.90;;
1682;SDS011;13252;53.596;10.060;2022-07-06T02:24:31;7.30;;;1.80;;
1682;SDS011;13252;53.596;10.060;2022-07-06T02:26:59;4.97;;;1.93;;
1682;SDS011;13252;53.596;10.060;2022-07-06T02:29:29;8.40;;;1.57;;
1682;SDS011;13252;53.596;10.060;2022-07-06T02:31:57;7.40;;;1.73;;
1682;SDS011;13252;53.596;10.060;2022-07-06T02:34:25;4.27;;;1.57;;
1682;SDS011;13252;53.596;10.060;2022-07-06T02:36:54;10.10;;;1.80;;
1682;SDS011;13252;53.596;10.060;2022-07-06T02:39:22;10.30;;;2.13;;
1682;SDS011;13252;53.596;10.060;2022-07-06T02:41:51;4.13;;;1.20;;
1682;SDS011;13252;53.596;10.060;2022-07-06T02:44:18;8.97;;;2.17;;
1682;SDS011;13252;53.596;10.060;2022-07-06T02:46:47;5.33;;;2.30;;
1682;SDS011;13252;53.596;10.060;2022-07-06T02:49:15;11.87;;;2.63;;
1682;SDS011;13252;53.596;10.060;2022-07-06T02:51:43;7.03;;;1.50;;
1682;SDS011;13252;53.596;10.060;2022-07-06T02:54:11;11.10;;;2.20;;
1682;SDS011;13252;53.596;10.060;2022-07-06T02:56:39;7.63;;;2.40;;
1682;SDS011;13252;53.596;10.060;2022-07-06T02:59:08;14.40;;;1.73;;
1682;SDS011;13252;53.596;10.060;2022-07-06T03:01:41;5.10;;;1.40;;
1682;SDS011;13252;53.596;10.060;2022-07-06T03:04:10;5.17;;;1.60;;
1682;SDS011;13252;53.596;10.060;2022-07-06T03:06:38;7.67;;;1.43;;
1682;SDS011;13252;53.596;10.060;2022-07-06T03:09:06;4.40;;;1.53;;
1682;SDS011;13252;53.596;10.060;2022-07-06T03:11:34;5.60;;;1.47;;
1682;SDS011;13252;53.596;10.060;2022-07-06T03:14:03;7.20;;;1.67;;
1682;SDS011;13252;53.596;10.060;2022-07-06T03:16:33;5.50;;;1.13;;
1682;SDS011;13252;53.596;10.060;2022-07-06T03:19:01;3.67;;;1.10;;
1682;SDS011;13252;53.596;10.060;2022-07-06T03:21:30;7.33;;;1.53;;
1682;SDS011;13252;53.596;10.060;2022-07-06T03:23:58;3.87;;;1.33;;
1682;SDS011;13252;53.596;10.060;2022-07-06T03:26:26;10.83;;;2.00;;
1682;SDS011;13252;53.596;10.060;2022-07-06T03:28:54;6.83;;;1.40;;
1682;SDS011;13252;53.596;10.060;2022-07-06T03:31:22;4.57;;;1.13;;
1682;SDS011;13252;53.596;10.060;2022-07-06T03:33:50;6.53;;;1.53;;
1682;SDS011;13252;53.596;10.060;2022-07-06T03:36:19;6.40;;;1.30;;
1682;SDS011;13252;53.596;10.060;2022-07-06T03:38:48;3.20;;;1.53;;
1682;SDS011;13252;53.596;10.060;2022-07-06T03:41:16;5.67;;;1.63;;
1682;SDS011;13252;53.596;10.060;2022-07-06T03:43:44;7.57;;;2.00;;
1682;SDS011;13252;53.596;10.060;2022-07-06T03:46:12;4.40;;;1.67;;
1682;SDS011;13252;53.596;10.060;2022-07-06T03:48:39;13.07;;;2.33;;
1682;SDS011;13252;53.596;10.060;2022-07-06T03:51:07;9.43;;;1.97;;
1682;SDS011;13252;53.596;10.060;2022-07-06T03:53:36;10.73;;;1.70;;
1682;SDS011;13252;53.596;10.060;2022-07-06T03:56:06;7.03;;;1.73;;
1682;SDS011;13252;53.596;10.060;2022-07-06T03:58:51;5.23;;;1.70;;
1682;SDS011;13252;53.596;10.060;2022-07-06T04:01:18;6.10;;;1.70;;
1682;SDS011;13252;53.596;10.060;2022-07-06T04:03:46;6.13;;;1.90;;
1682;SDS011;13252;53.596;10.060;2022-07-06T04:06:14;11.33;;;2.10;;
1682;SDS011;13252;53.596;10.060;2022-07-06T04:08:42;5.83;;;2.10;;
1682;SDS011;13252;53.596;10.060;2022-07-06T04:11:11;5.40;;;1.70;;
1682;SDS011;13252;53.596;10.060;2022-07-06T04:13:39;3.70;;;1.20;;
1682;SDS011;13252;53.596;10.060;2022-07-06T04:16:07;7.63;;;2.00;;
1682;SDS011;13252;53.596;10.060;2022-07-06T04:18:35;9.10;;;1.50;;
1682;SDS011;13252;53.596;10.060;2022-07-06T04:21:05;7.00;;;1.57;;
1682;SDS011;13252;53.596;10.060;2022-07-06T04:23:35;6.60;;;1.47;;
1682;SDS011;13252;53.596;10.060;2022-07-06T04:26:04;6.10;;;1.90;;
1682;SDS011;13252;53.596;10.060;2022-07-06T04:28:37;9.20;;;1.53;;
1682;SDS011;13252;53.596;10.060;2022-07-06T04:31:08;6.87;;;1.80;;
1682;SDS011;13252;53.596;10.060;2022-07-06T04:33:36;7.57;;;1.83;;
1682;SDS011;13252;53.596;10.060;2022-07-06T04:36:04;5.60;;;1.50;;
1682;SDS011;13252;53.596;10.060;2022-07-06T04:38:42;6.40;;;1.80;;
1682;SDS011;13252;53.596;10.060;2022-07-06T04:41:11;5.17;;;1.63;;
1682;SDS011;13252;53.596;10.060;2022-07-06T04:43:40;5.27;;;1.23;;
1682;SDS011;13252;53.596;10.060;2022-07-06T04:46:12;9.27;;;1.10;;
1682;SDS011;13252;53.596;10.060;2022-07-06T04:48:42;6.10;;;1.90;;
1682;SDS011;13252;53.596;10.060;2022-07-06T04:51:16;3.30;;;1.27;;
1682;SDS011;13252;53.596;10.060;2022-07-06T04:53:44;4.97;;;1.27;;
1682;SDS011;13252;53.596;10.060;2022-07-06T04:56:12;7.70;;;1.67;;
1682;SDS011;13252;53.596;10.060;2022-07-06T04:58:41;3.43;;;1.30;;
1682;SDS011;13252;53.596;10.060;2022-07-06T05:01:12;8.53;;;1.60;;
1682;SDS011;13252;53.596;10.060;2022-07-06T05:03:40;12.07;;;3.37;;
1682;SDS011;13252;53.596;10.060;2022-07-06T05:06:10;7.73;;;1.40;;
1682;SDS011;13252;53.596;10.060;2022-07-06T05:08:38;11.90;;;2.63;;
1682;SDS011;13252;53.596;10.060;2022-07-06T05:11:05;8.30;;;1.70;;
1682;SDS011;13252;53.596;10.060;2022-07-06T05:13:34;6.00;;;1.90;;
1682;SDS011;13252;53.596;10.060;2022-07-06T05:16:04;9.33;;;1.60;;
1682;SDS011;13252;53.596;10.060;2022-07-06T05:18:32;5.30;;;1.70;;
1682;SDS011;13252;53.596;10.060;2022-07-06T05:21:00;6.67;;;1.40;;
1682;SDS011;13252;53.596;10.060;2022-07-06T05:23:28;5.67;;;1.50;;
1682;SDS011;13252;53.596;10.060;2022-07-06T05:25:56;8.10;;;1.63;;
1682;SDS011;13252;53.596;10.060;2022-07-06T05:28:24;5.63;;;1.60;;
1682;SDS011;13252;53.596;10.060;2022-07-06T05:31:00;7.33;;;1.50;;
1682;SDS011;13252;53.596;10.060;2022-07-06T05:33:30;11.23;;;1.80;;
1682;SDS011;13252;53.596;10.060;2022-07-06T05:35:58;5.97;;;1.47;;
1682;SDS011;13252;53.596;10.060;2022-07-06T05:38:27;9.30;;;1.90;;
1682;SDS011;13252;53.596;10.060;2022-07-06T05:40:55;5.23;;;1.73;;
1682;SDS011;13252;53.596;10.060;2022-07-06T05:43:23;12.23;;;2.10;;
1682;SDS011;13252;53.596;10.060;2022-07-06T05:45:52;6.07;;;1.20;;
1682;SDS011;13252;53.596;10.060;2022-07-06T05:48:22;4.80;;;1.40;;
1682;SDS011;13252;53.596;10.060;2022-07-06T05:51:09;14.30;;;2.43;;
1682;SDS011;13252;53.596;10.060;2022-07-06T05:53:39;9.03;;;2.33;;
1682;SDS011;13252;53.596;10.060;2022-07-06T05:56:08;8.23;;;2.50;;
1682;SDS011;13252;53.596;10.060;2022-07-06T05:58:37;8.33;;;1.80;;
1682;SDS011;13252;53.596;10.060;2022-07-06T06:01:05;14.17;;;2.37;;
1682;SDS011;13252;53.596;10.060;2022-07-06T06:03:35;9.00;;;2.20;;
1682;SDS011;13252;53.596;10.060;2022-07-06T06:06:04;13.07;;;1.80;;
1682;SDS011;13252;53.596;10.060;2022-07-06T06:08:33;10.50;;;1.83;;
1682;SDS011;13252;53.596;10.060;2022-07-06T06:11:03;13.43;;;2.50;;
1682;SDS011;13252;53.596;10.060;2022-07-06T06:13:37;6.63;;;2.03;;
1682;SDS011;13252;53.596;10.060;2022-07-06T06:16:05;7.90;;;2.37;;
1682;SDS011;13252;53.596;10.060;2022-07-06T06:18:33;9.83;;;1.80;;
1682;SDS011;13252;53.596;10.060;2022-07-06T06:21:07;5.93;;;2.13;;
1682;SDS011;13252;53.596;10.060;2022-07-06T06:23:36;14.00;;;3.43;;
1682;SDS011;13252;53.596;10.060;2022-07-06T06:26:04;8.43;;;2.73;;
1682;SDS011;13252;53.596;10.060;2022-07-06T06:28:32;8.57;;;1.93;;
1682;SDS011;13252;53.596;10.060;2022-07-06T06:30:59;7.40;;;2.77;;
1682;SDS011;13252;53.596;10.060;2022-07-06T06:33:27;8.07;;;1.83;;
1682;SDS011;13252;53.596;10.060;2022-07-06T06:35:55;7.50;;;1.73;;
1682;SDS011;13252;53.596;10.060;2022-07-06T06:38:23;17.77;;;2.70;;
1682;SDS011;13252;53.596;10.060;2022-07-06T06:40:55;8.30;;;1.80;;
1682;SDS011;13252;53.596;10.060;2022-07-06T06:43:24;5.90;;;2.43;;
1682;SDS011;13252;53.596;10.060;2022-07-06T06:46:13;8.73;;;1.57;;
1682;SDS011;13252;53.596;10.060;2022-07-06T06:48:41;5.80;;;1.40;;
1682;SDS011;13252;53.596;10.060;2022-07-06T06:51:09;6.20;;;1.40;;
1682;SDS011;13252;53.596;10.060;2022-07-06T06:53:36;6.73;;;1.40;;
1682;SDS011;13252;53.596;10.060;2022-07-06T06:56:07;7.77;;;1.60;;
1682;SDS011;13252;53.596;10.060;2022-07-06T06:58:35;13.23;;;1.80;;
1682;SDS011;13252;53.596;10.060;2022-07-06T07:01:23;4.50;;;1.40;;
1682;SDS011;13252;53.596;10.060;2022-07-06T07:03:51;5.50;;;1.20;;
1682;SDS011;13252;53.596;10.060;2022-07-06T07:06:19;4.60;;;1.30;;
1682;SDS011;13252;53.596;10.060;2022-07-06T07:08:46;7.67;;;1.57;;
1682;SDS011;13252;53.596;10.060;2022-07-06T07:11:15;5.87;;;1.00;;
1682;SDS011;13252;53.596;10.060;2022-07-06T07:13:43;5.50;;;1.27;;
1682;SDS011;13252;53.596;10.060;2022-07-06T07:16:11;3.90;;;1.03;;
1682;SDS011;13252;53.596;10.060;2022-07-06T07:18:38;4.43;;;1.67;;
1682;SDS011;13252;53.596;10.060;2022-07-06T07:21:06;4.63;;;1.10;;
1682;SDS011;13252;53.596;10.060;2022-07-06T07:23:34;7.70;;;1.33;;
1682;SDS011;13252;53.596;10.060;2022-07-06T07:26:02;7.33;;;1.40;;
1682;SDS011;13252;53.596;10.060;2022-07-06T07:28:31;4.30;;;1.20;;
1682;SDS011;13252;53.596;10.060;2022-07-06T07:30:58;4.63;;;1.20;;
1682;SDS011;13252;53.596;10.060;2022-07-06T07:33:26;4.67;;;1.10;;
1682;SDS011;13252;53.596;10.060;2022-07-06T07:35:54;5.73;;;1.40;;
1682;SDS011;13252;53.596;10.060;2022-07-06T07:38:21;5.90;;;1.30;;
1682;SDS011;13252;53.596;10.060;2022-07-06T07:40:49;7.47;;;1.27;;
1682;SDS011;13252;53.596;10.060;2022-07-06T07:43:17;8.50;;;1.50;;
1682;SDS011;13252;53.596;10.060;2022-07-06T07:45:46;3.27;;;1.10;;
1682;SDS011;13252;53.596;10.060;2022-07-06T07:48:14;6.03;;;1.17;;
1682;SDS011;13252;53.596;10.060;2022-07-06T07:50:42;10.93;;;1.57;;
1682;SDS011;13252;53.596;10.060;2022-07-06T07:53:10;3.57;;;1.10;;
1682;SDS011;13252;53.596;10.060;2022-07-06T07:55:38;10.03;;;1.30;;
1682;SDS011;13252;53.596;10.060;2022-07-06T07:58:07;5.93;;;1.40;;
1682;SDS011;13252;53.596;10.060;2022-07-06T08:00:35;3.73;;;1.20;;
1682;SDS011;13252;53.596;10.060;2022-07-06T08:03:04;7.03;;;0.90;;
1682;SDS011;13252;53.596;10.060;2022-07-06T08:05:32;3.23;;;1.00;;
1682;SDS011;13252;53.596;10.060;2022-07-06T08:07:59;6.00;;;1.00;;
1682;SDS011;13252;53.596;10.060;2022-07-06T08:10:27;2.43;;;0.70;;
1682;SDS011;13252;53.596;10.060;2022-07-06T08:12:55;16.13;;;1.10;;
1682;SDS011;13252;53.596;10.060;2022-07-06T08:15:23;10.33;;;1.27;;
1682;SDS011;13252;53.596;10.060;2022-07-06T08:17:51;3.00;;;0.87;;
1682;SDS011;13252;53.596;10.060;2022-07-06T08:20:20;3.37;;;0.80;;
1682;SDS011;13252;53.596;10.060;2022-07-06T08:22:47;2.20;;;0.73;;
1682;SDS011;13252;53.596;10.060;2022-07-06T08:25:15;8.60;;;1.40;;
1682;SDS011;13252;53.596;10.060;2022-07-06T08:27:43;4.53;;;1.20;;
1682;SDS011;13252;53.596;10.060;2022-07-06T08:30:11;3.20;;;0.73;;
1682;SDS011;13252;53.596;10.060;2022-07-06T08:32:41;6.73;;;1.10;;
1682;SDS011;13252;53.596;10.060;2022-07-06T08:35:30;5.73;;;1.10;;
1682;SDS011;13252;53.596;10.060;2022-07-06T08:37:58;10.43;;;1.90;;
1682;SDS011;13252;53.596;10.060;2022-07-06T08:40:26;2.70;;;0.80;;
1682;SDS011;13252;53.596;10.060;2022-07-06T08:43:00;4.47;;;1.00;;
1682;SDS011;13252;53.596;10.060;2022-07-06T08:45:28;1.93;;;0.60;;
1682;SDS011;13252;53.596;10.060;2022-07-06T08:50:34;4.00;;;0.90;;
1682;SDS011;13252;53.596;10.060;2022-07-06T08:53:02;5.13;;;1.30;;
1682;SDS011;13252;53.596;10.060;2022-07-06T08:55:32;3.07;;;0.80;;
1682;SDS011;13252;53.596;10.060;2022-07-06T08:58:00;2.80;;;0.90;;
1682;SDS011;13252;53.596;10.060;2022-07-06T09:00:31;3.70;;;1.30;;
1682;SDS011;13252;53.596;10.060;2022-07-06T09:02:59;6.13;;;1.40;;
1682;SDS011;13252;53.596;10.060;2022-07-06T09:05:28;5.03;;;1.33;;
1682;SDS011;13252;53.596;10.060;2022-07-06T09:08:18;2.83;;;1.10;;
1682;SDS011;13252;53.596;10.060;2022-07-06T09:10:47;3.10;;;0.93;;
1682;SDS011;13252;53.596;10.060;2022-07-06T09:13:16;4.10;;;1.23;;
1682;SDS011;13252;53.596;10.060;2022-07-06T09:15:44;4.47;;;1.17;;
1682;SDS011;13252;53.596;10.060;2022-07-06T09:18:12;3.23;;;1.00;;
1682;SDS011;13252;53.596;10.060;2022-07-06T09:20:40;3.03;;;0.90;;
1682;SDS011;13252;53.596;10.060;2022-07-06T09:23:08;4.50;;;1.50;;
1682;SDS011;13252;53.596;10.060;2022-07-06T09:25:43;3.57;;;0.90;;
1682;SDS011;13252;53.596;10.060;2022-07-06T09:28:16;2.50;;;0.63;;
1682;SDS011;13252;53.596;10.060;2022-07-06T09:30:43;3.03;;;0.80;;
1682;SDS011;13252;53.596;10.060;2022-07-06T09:33:12;3.67;;;0.80;;
1682;SDS011;13252;53.596;10.060;2022-07-06T09:35:53;4.20;;;0.73;;
1682;SDS011;13252;53.596;10.060;2022-07-06T09:38:27;2.77;;;0.77;;
1682;SDS011;13252;53.596;10.060;2022-07-06T09:40:58;3.80;;;0.70;;
1682;SDS011;13252;53.596;10.060;2022-07-06T09:43:29;3.37;;;0.70;;
1682;SDS011;13252;53.596;10.060;2022-07-06T09:46:00;6.33;;;1.07;;
1682;SDS011;13252;53.596;10.060;2022-07-06T09:48:32;13.23;;;1.10;;
1682;SDS011;13252;53.596;10.060;2022-07-06T09:51:04;3.37;;;0.90;;
1682;SDS011;13252;53.596;10.060;2022-07-06T09:53:34;2.73;;;0.80;;
1682;SDS011;13252;53.596;10.060;2022-07-06T09:56:04;3.97;;;1.00;;
1682;SDS011;13252;53.596;10.060;2022-07-06T09:58:32;4.10;;;0.83;;
1682;SDS011;13252;53.596;10.060;2022-07-06T10:01:28;4.67;;;0.90;;
1682;SDS011;13252;53.596;10.060;2022-07-06T10:03:56;2.57;;;0.77;;
1682;SDS011;13252;53.596;10.060;2022-07-06T10:06:33;2.77;;;0.77;;
1682;SDS011;13252;53.596;10.060;2022-07-06T10:10:34;2.83;;;0.70;;
1682;SDS011;13252;53.596;10.060;2022-07-06T10:13:07;6.03;;;0.90;;
1682;SDS011;13252;53.596;10.060;2022-07-06T10:15:36;4.00;;;0.80;;
1682;SDS011;13252;53.596;10.060;2022-07-06T10:18:07;4.50;;;0.77;;
1682;SDS011;13252;53.596;10.060;2022-07-06T10:20:39;2.93;;;0.73;;
1682;SDS011;13252;53.596;10.060;2022-07-06T10:23:24;5.17;;;1.50;;
1682;SDS011;13252;53.596;10.060;2022-07-06T10:25:59;3.70;;;0.80;;
1682;SDS011;13252;53.596;10.060;2022-07-06T10:28:40;4.40;;;1.00;;
1682;SDS011;13252;53.596;10.060;2022-07-06T10:31:14;2.67;;;0.63;;
1682;SDS011;13252;53.596;10.060;2022-07-06T10:33:44;5.23;;;0.80;;
1682;SDS011;13252;53.596;10.060;2022-07-06T10:36:14;8.37;;;1.13;;
1682;SDS011;13252;53.596;10.060;2022-07-06T10:38:44;3.47;;;0.73;;
1682;SDS011;13252;53.596;10.060;2022-07-06T10:41:14;2.97;;;0.70;;
1682;SDS011;13252;53.596;10.060;2022-07-06T10:43:43;2.60;;;0.80;;
1682;SDS011;13252;53.596;10.060;2022-07-06T10:46:13;3.87;;;0.90;;
1682;SDS011;13252;53.596;10.060;2022-07-06T10:48:44;4.90;;;0.70;;
1682;SDS011;13252;53.596;10.060;2022-07-06T10:51:12;6.80;;;0.87;;
1682;SDS011;13252;53.596;10.060;2022-07-06T10:53:41;4.47;;;0.70;;
1682;SDS011;13252;53.596;10.060;2022-07-06T10:56:10;5.63;;;0.93;;
1682;SDS011;13252;53.596;10.060;2022-07-06T10:58:40;3.90;;;0.90;;
1682;SDS011;13252;53.596;10.060;2022-07-06T11:01:14;3.73;;;1.17;;
1682;SDS011;13252;53.596;10.060;2022-07-06T11:03:45;12.60;;;1.20;;
1682;SDS011;13252;53.596;10.060;2022-07-06T11:06:16;4.80;;;1.10;;
1682;SDS011;13252;53.596;10.060;2022-07-06T11:08:48;3.20;;;0.90;;
1682;SDS011;13252;53.596;10.060;2022-07-06T11:11:18;5.30;;;1.60;;
1682;SDS011;13252;53.596;10.060;2022-07-06T11:13:49;9.07;;;1.60;;
1682;SDS011;13252;53.596;10.060;2022-07-06T11:16:19;5.77;;;1.17;;
1682;SDS011;13252;53.596;10.060;2022-07-06T11:18:50;4.27;;;1.17;;
1682;SDS011;13252;53.596;10.060;2022-07-06T11:21:34;4.27;;;1.43;;
1682;SDS011;13252;53.596;10.060;2022-07-06T11:24:03;5.77;;;1.10;;
1682;SDS011;13252;53.596;10.060;2022-07-06T11:26:32;4.90;;;1.10;;
1682;SDS011;13252;53.596;10.060;2022-07-06T11:29:07;9.47;;;1.00;;
1682;SDS011;13252;53.596;10.060;2022-07-06T11:31:37;5.90;;;0.90;;
1682;SDS011;13252;53.596;10.060;2022-07-06T11:34:06;5.80;;;1.13;;
1682;SDS011;13252;53.596;10.060;2022-07-06T11:36:34;5.13;;;1.20;;
1682;SDS011;13252;53.596;10.060;2022-07-06T11:39:10;7.00;;;1.20;;
1682;SDS011;13252;53.596;10.060;2022-07-06T11:41:38;3.93;;;0.97;;
1682;SDS011;13252;53.596;10.060;2022-07-06T11:44:15;10.10;;;1.20;;
1682;SDS011;13252;53.596;10.060;2022-07-06T11:46:42;8.60;;;0.90;;
1682;SDS011;13252;53.596;10.060;2022-07-06T11:49:10;5.13;;;0.90;;
1682;SDS011;13252;53.596;10.060;2022-07-06T11:51:41;4.90;;;1.10;;
1682;SDS011;13252;53.596;10.060;2022-07-06T11:54:11;9.13;;;1.20;;
1682;SDS011;13252;53.596;10.060;2022-07-06T11:56:44;8.57;;;1.00;;
1682;SDS011;13252;53.596;10.060;2022-07-06T11:59:15;10.93;;;2.80;;
1682;SDS011;13252;53.596;10.060;2022-07-06T12:01:43;5.13;;;0.93;;
1682;SDS011;13252;53.596;10.060;2022-07-06T12:04:11;7.67;;;1.43;;
1682;SDS011;13252;53.596;10.060;2022-07-06T12:06:43;6.93;;;2.03;;
1682;SDS011;13252;53.596;10.060;2022-07-06T12:09:11;3.80;;;1.37;;
1682;SDS011;13252;53.596;10.060;2022-07-06T12:11:40;6.60;;;0.73;;
1682;SDS011;13252;53.596;10.060;2022-07-06T12:14:13;8.50;;;0.77;;
1682;SDS011;13252;53.596;10.060;2022-07-06T12:16:44;5.33;;;0.80;;
1682;SDS011;13252;53.596;10.060;2022-07-06T12:19:13;5.90;;;0.80;;
1682;SDS011;13252;53.596;10.060;2022-07-06T12:21:44;5.80;;;0.70;;
1682;SDS011;13252;53.596;10.060;2022-07-06T12:24:17;6.77;;;1.23;;
1682;SDS011;13252;53.596;10.060;2022-07-06T12:26:46;3.90;;;0.80;;
1682;SDS011;13252;53.596;10.060;2022-07-06T12:29:16;8.20;;;1.23;;
1682;SDS011;13252;53.596;10.060;2022-07-06T12:31:48;5.70;;;0.93;;
1682;SDS011;13252;53.596;10.060;2022-07-06T12:34:17;4.37;;;0.60;;
1682;SDS011;13252;53.596;10.060;2022-07-06T12:36:46;4.57;;;0.73;;
1682;SDS011;13252;53.596;10.060;2022-07-06T12:39:15;2.80;;;0.53;;
1682;SDS011;13252;53.596;10.060;2022-07-06T12:41:45;3.77;;;0.70;;
1682;SDS011;13252;53.596;10.060;2022-07-06T12:44:15;4.67;;;0.50;;
1682;SDS011;13252;53.596;10.060;2022-07-06T12:46:46;3.57;;;0.70;;
1682;SDS011;13252;53.596;10.060;2022-07-06T12:49:18;4.30;;;0.97;;
1682;SDS011;13252;53.596;10.060;2022-07-06T12:51:56;3.87;;;0.80;;
1682;SDS011;13252;53.596;10.060;2022-07-06T12:54:27;4.93;;;1.13;;
1682;SDS011;13252;53.596;10.060;2022-07-06T12:57:10;5.33;;;1.67;;
1682;SDS011;13252;53.596;10.060;2022-07-06T12:59:44;2.57;;;0.60;;
1682;SDS011;13252;53.596;10.060;2022-07-06T13:02:18;2.77;;;0.80;;
1682;SDS011;13252;53.596;10.060;2022-07-06T13:05:15;4.37;;;0.50;;
1682;SDS011;13252;53.596;10.060;2022-07-06T13:07:44;24.83;;;1.40;;
1682;SDS011;13252;53.596;10.060;2022-07-06T13:10:14;5.10;;;1.63;;
1682;SDS011;13252;53.596;10.060;2022-07-06T13:12:42;5.93;;;1.10;;
1682;SDS011;13252;53.596;10.060;2022-07-06T13:15:12;5.70;;;0.83;;
1682;SDS011;13252;53.596;10.060;2022-07-06T13:17:40;2.77;;;0.60;;
1682;SDS011;13252;53.596;10.060;2022-07-06T13:20:10;3.63;;;1.10;;
1682;SDS011;13252;53.596;10.060;2022-07-06T13:22:39;3.83;;;0.70;;
1682;SDS011;13252;53.596;10.060;2022-07-06T13:25:09;3.50;;;0.60;;
1682;SDS011;13252;53.596;10.060;2022-07-06T13:27:37;2.73;;;0.60;;
1682;SDS011;13252;53.596;10.060;2022-07-06T13:30:08;4.90;;;1.47;;
1682;SDS011;13252;53.596;10.060;2022-07-06T13:32:40;8.80;;;1.23;;
1682;SDS011;13252;53.596;10.060;2022-07-06T13:35:08;6.17;;;0.87;;
1682;SDS011;13252;53.596;10.060;2022-07-06T13:37:36;6.77;;;0.87;;
1682;SDS011;13252;53.596;10.060;2022-07-06T13:40:05;5.53;;;0.80;;
1682;SDS011;13252;53.596;10.060;2022-07-06T13:42:33;4.53;;;0.90;;
1682;SDS011;13252;53.596;10.060;2022-07-06T13:45:01;6.73;;;0.77;;
1682;SDS011;13252;53.596;10.060;2022-07-06T13:47:30;8.20;;;1.07;;
1682;SDS011;13252;53.596;10.060;2022-07-06T13:49:58;5.63;;;1.13;;
1682;SDS011;13252;53.596;10.060;2022-07-06T13:52:26;4.33;;;0.80;;
1682;SDS011;13252;53.596;10.060;2022-07-06T13:54:54;6.40;;;0.90;;
1682;SDS011;13252;53.596;10.060;2022-07-06T13:57:27;3.60;;;0.63;;
1682;SDS011;13252;53.596;10.060;2022-07-06T13:59:55;17.47;;;1.10;;
1682;SDS011;13252;53.596;10.060;2022-07-06T14:02:23;4.13;;;0.83;;
1682;SDS011;13252;53.596;10.060;2022-07-06T14:04:53;7.90;;;1.03;;
1682;SDS011;13252;53.596;10.060;2022-07-06T14:07:20;6.27;;;1.00;;
1682;SDS011;13252;53.596;10.060;2022-07-06T14:09:48;5.23;;;0.90;;
1682;SDS011;13252;53.596;10.060;2022-07-06T14:12:18;3.70;;;0.60;;
1682;SDS011;13252;53.596;10.060;2022-07-06T14:14:48;6.10;;;0.70;;
1682;SDS011;13252;53.596;10.060;2022-07-06T14:17:16;6.00;;;0.90;;
1682;SDS011;13252;53.596;10.060;2022-07-06T14:19:46;6.60;;;1.20;;
1682;SDS011;13252;53.596;10.060;2022-07-06T14:22:16;3.50;;;0.87;;
1682;SDS011;13252;53.596;10.060;2022-07-06T14:24:44;4.70;;;0.60;;
1682;SDS011;13252;53.596;10.060;2022-07-06T14:27:12;5.67;;;0.97;;
1682;SDS011;13252;53.596;10.060;2022-07-06T14:29:43;4.33;;;0.63;;
1682;SDS011;13252;53.596;10.060;2022-07-06T14:32:11;8.13;;;0.70;;
1682;SDS011;13252;53.596;10.060;2022-07-06T14:34:39;3.27;;;1.00;;
1682;SDS011;13252;53.596;10.060;2022-07-06T14:37:09;5.00;;;0.80;;
1682;SDS011;13252;53.596;10.060;2022-07-06T14:39:46;4.90;;;0.63;;
1682;SDS011;13252;53.596;10.060;2022-07-06T14:42:15;10.00;;;1.03;;
1682;SDS011;13252;53.596;10.060;2022-07-06T14:44:43;7.70;;;0.80;;
1682;SDS011;13252;53.596;10.060;2022-07-06T14:47:11;3.37;;;0.73;;
1682;SDS011;13252;53.596;10.060;2022-07-06T14:49:39;4.43;;;0.83;;
1682;SDS011;13252;53.596;10.060;2022-07-06T14:52:07;2.73;;;0.57;;
1682;SDS011;13252;53.596;10.060;2022-07-06T14:54:35;4.00;;;0.60;;
1682;SDS011;13252;53.596;10.060;2022-07-06T14:57:05;4.03;;;0.77;;
1682;SDS011;13252;53.596;10.060;2022-07-06T14:59:34;4.20;;;0.73;;
1682;SDS011;13252;53.596;10.060;2022-07-06T15:02:02;5.40;;;0.53;;
1682;SDS011;13252;53.596;10.060;2022-07-06T15:04:30;4.00;;;0.80;;